sensor_id;sensor_type;location;lat;lon;timestamp;P1;P2;P0
33948;PMS7003;20229;49.856;19.030;2023-04-03T00:00:49;28;25;20
33948;PMS7003;20229;49.856;19.030;2023-04-03T00:06:03;22;21;18
33948;PMS7003;20229;49.856;19.030;2023-04-03T00:11:22;27;25;21
33948;PMS7003;20229;49.856;19.030;2023-04-03T00:16:36;31;27;23
33948;PMS7003;20229;49.856;19.030;2023-04-03T00:21:50;27;25;20
33948;PMS7003;20229;49.856;19.030;2023-04-03T00:27:03;28;26;21
33948;PMS7003;20229;49.856;19.030;2023-04-03T00:32:18;32;29;23
33948;PMS7003;20229;49.856;19.030;2023-04-03T00:37:31;29;26;20
33948;PMS7003;20229;49.856;19.030;2023-04-03T00:42:47;29;25;21
33948;PMS7003;20229;49.856;19.030;2023-04-03T00:48:06;32;28;22
33948;PMS7003;20229;49.856;19.030;2023-04-03T00:53:26;30;27;22
33948;PMS7003;20229;49.856;19.030;2023-04-03T00:58:53;30;28;22
33948;PMS7003;20229;49.856;19.030;2023-04-03T01:09:36;24;22;17
33948;PMS7003;20229;49.856;19.030;2023-04-03T01:14:53;25;24;20
33948;PMS7003;20229;49.856;19.030;2023-04-03T01:20:21;19;19;16
33948;PMS7003;20229;49.856;19.030;2023-04-03T01:25:43;27;24;18
33948;PMS7003;20229;49.856;19.030;2023-04-03T01:31:28;27;25;20
33948;PMS7003;20229;49.856;19.030;2023-04-03T01:37:00;32;29;24
33948;PMS7003;20229;49.856;19.030;2023-04-03T01:42:14;25;21;17
33948;PMS7003;20229;49.856;19.030;2023-04-03T01:47:29;20;19;16
33948;PMS7003;20229;49.856;19.030;2023-04-03T01:52:43;24;23;19
33948;PMS7003;20229;49.856;19.030;2023-04-03T01:57:57;20;20;17
33948;PMS7003;20229;49.856;19.030;2023-04-03T02:03:11;22;20;18
33948;PMS7003;20229;49.856;19.030;2023-04-03T02:08:25;37;31;25
33948;PMS7003;20229;49.856;19.030;2023-04-03T02:13:39;25;24;20
33948;PMS7003;20229;49.856;19.030;2023-04-03T02:18:53;21;20;17
33948;PMS7003;20229;49.856;19.030;2023-04-03T02:24:07;26;23;20
33948;PMS7003;20229;49.856;19.030;2023-04-03T02:29:21;25;22;19
33948;PMS7003;20229;49.856;19.030;2023-04-03T02:34:34;23;22;19
33948;PMS7003;20229;49.856;19.030;2023-04-03T02:39:48;27;24;20
33948;PMS7003;20229;49.856;19.030;2023-04-03T02:45:03;25;23;19
33948;PMS7003;20229;49.856;19.030;2023-04-03T02:50:17;23;22;19
33948;PMS7003;20229;49.856;19.030;2023-04-03T02:55:31;19;18;14
33948;PMS7003;20229;49.856;19.030;2023-04-03T03:00:45;23;20;16
33948;PMS7003;20229;49.856;19.030;2023-04-03T03:06:06;40;34;25
33948;PMS7003;20229;49.856;19.030;2023-04-03T03:11:22;27;25;20
33948;PMS7003;20229;49.856;19.030;2023-04-03T03:16:36;27;24;19
33948;PMS7003;20229;49.856;19.030;2023-04-03T03:21:50;26;24;19
33948;PMS7003;20229;49.856;19.030;2023-04-03T03:27:05;27;25;20
33948;PMS7003;20229;49.856;19.030;2023-04-03T03:32:19;28;25;20
33948;PMS7003;20229;49.856;19.030;2023-04-03T03:37:37;29;25;20
33948;PMS7003;20229;49.856;19.030;2023-04-03T03:42:50;30;24;19
33948;PMS7003;20229;49.856;19.030;2023-04-03T03:48:04;29;25;20
33948;PMS7003;20229;49.856;19.030;2023-04-03T03:53:19;24;23;18
33948;PMS7003;20229;49.856;19.030;2023-04-03T03:58:33;18;17;13
33948;PMS7003;20229;49.856;19.030;2023-04-03T04:03:48;21;20;17
33948;PMS7003;20229;49.856;19.030;2023-04-03T04:09:02;22;20;16
33948;PMS7003;20229;49.856;19.030;2023-04-03T04:14:16;20;18;15
33948;PMS7003;20229;49.856;19.030;2023-04-03T04:19:30;18;17;13
33948;PMS7003;20229;49.856;19.030;2023-04-03T04:24:43;21;19;16
33948;PMS7003;20229;49.856;19.030;2023-04-03T04:29:57;19;17;13
33948;PMS7003;20229;49.856;19.030;2023-04-03T04:35:11;13;12;9
33948;PMS7003;20229;49.856;19.030;2023-04-03T04:40:26;13;12;8
33948;PMS7003;20229;49.856;19.030;2023-04-03T04:45:40;16;14;10
33948;PMS7003;20229;49.856;19.030;2023-04-03T04:50:54;14;13;9
33948;PMS7003;20229;49.856;19.030;2023-04-03T04:56:08;19;15;13
33948;PMS7003;20229;49.856;19.030;2023-04-03T05:01:23;14;13;10
33948;PMS7003;20229;49.856;19.030;2023-04-03T05:06:38;15;15;12
33948;PMS7003;20229;49.856;19.030;2023-04-03T05:11:52;18;16;12
33948;PMS7003;20229;49.856;19.030;2023-04-03T05:17:07;22;20;17
33948;PMS7003;20229;49.856;19.030;2023-04-03T05:22:21;36;31;24
33948;PMS7003;20229;49.856;19.030;2023-04-03T05:27:34;26;22;18
33948;PMS7003;20229;49.856;19.030;2023-04-03T05:32:48;27;26;19
33948;PMS7003;20229;49.856;19.030;2023-04-03T05:38:03;24;23;18
33948;PMS7003;20229;49.856;19.030;2023-04-03T05:43:17;27;24;17
33948;PMS7003;20229;49.856;19.030;2023-04-03T05:48:30;33;27;22
33948;PMS7003;20229;49.856;19.030;2023-04-03T05:53:44;22;17;14
33948;PMS7003;20229;49.856;19.030;2023-04-03T05:59:00;22;18;14
33948;PMS7003;20229;49.856;19.030;2023-04-03T06:04:14;22;20;15
33948;PMS7003;20229;49.856;19.030;2023-04-03T06:09:29;12;12;9
33948;PMS7003;20229;49.856;19.030;2023-04-03T06:14:43;27;23;17
33948;PMS7003;20229;49.856;19.030;2023-04-03T06:19:57;16;16;13
33948;PMS7003;20229;49.856;19.030;2023-04-03T06:25:11;17;15;12
33948;PMS7003;20229;49.856;19.030;2023-04-03T06:30:25;17;14;10
33948;PMS7003;20229;49.856;19.030;2023-04-03T06:35:40;12;11;6
33948;PMS7003;20229;49.856;19.030;2023-04-03T06:40:54;18;17;14
33948;PMS7003;20229;49.856;19.030;2023-04-03T06:51:31;19;17;14
33948;PMS7003;20229;49.856;19.030;2023-04-03T06:56:44;19;19;16
33948;PMS7003;20229;49.856;19.030;2023-04-03T07:01:58;30;27;21
33948;PMS7003;20229;49.856;19.030;2023-04-03T07:07:13;20;16;14
33948;PMS7003;20229;49.856;19.030;2023-04-03T07:12:29;18;18;15
33948;PMS7003;20229;49.856;19.030;2023-04-03T07:17:43;19;17;13
33948;PMS7003;20229;49.856;19.030;2023-04-03T07:22:57;24;22;19
33948;PMS7003;20229;49.856;19.030;2023-04-03T07:28:11;16;16;12
33948;PMS7003;20229;49.856;19.030;2023-04-03T07:33:26;16;14;13
33948;PMS7003;20229;49.856;19.030;2023-04-03T07:38:39;33;30;24
33948;PMS7003;20229;49.856;19.030;2023-04-03T07:43:53;16;16;12
33948;PMS7003;20229;49.856;19.030;2023-04-03T07:49:09;23;20;15
33948;PMS7003;20229;49.856;19.030;2023-04-03T07:54:23;26;24;19
33948;PMS7003;20229;49.856;19.030;2023-04-03T07:59:36;40;34;28
33948;PMS7003;20229;49.856;19.030;2023-04-03T08:04:50;22;20;16
33948;PMS7003;20229;49.856;19.030;2023-04-03T08:10:06;18;18;14
33948;PMS7003;20229;49.856;19.030;2023-04-03T08:15:21;33;28;21
33948;PMS7003;20229;49.856;19.030;2023-04-03T08:20:35;37;32;25
33948;PMS7003;20229;49.856;19.030;2023-04-03T08:25:53;42;37;30
33948;PMS7003;20229;49.856;19.030;2023-04-03T08:31:10;42;35;29
33948;PMS7003;20229;49.856;19.030;2023-04-03T08:36:28;102;95;94
33948;PMS7003;20229;49.856;19.030;2023-04-03T08:41:43;162;160;159
33948;PMS7003;20229;49.856;19.030;2023-04-03T09:03:21;147;146;145
33948;PMS7003;20229;49.856;19.030;2023-04-03T09:14:33;6;6;5
33948;PMS7003;20229;49.856;19.030;2023-04-03T09:32:02;23;21;18
33948;PMS7003;20229;49.856;19.030;2023-04-03T09:42:54;82;75;73
33948;PMS7003;20229;49.856;19.030;2023-04-03T09:48:17;84;74;69
33948;PMS7003;20229;49.856;19.030;2023-04-03T09:53:34;86;78;76
33948;PMS7003;20229;49.856;19.030;2023-04-03T09:58:52;64;54;49
33948;PMS7003;20229;49.856;19.030;2023-04-03T10:04:18;8;6;4
33948;PMS7003;20229;49.856;19.030;2023-04-03T10:09:35;61;51;41
33948;PMS7003;20229;49.856;19.030;2023-04-03T10:14:55;34;34;28
33948;PMS7003;20229;49.856;19.030;2023-04-03T10:20:21;13;12;8
33948;PMS7003;20229;49.856;19.030;2023-04-03T10:31:37;14;10;8
33948;PMS7003;20229;49.856;19.030;2023-04-03T10:58:50;9;8;5
33948;PMS7003;20229;49.856;19.030;2023-04-03T11:04:07;10;9;7
33948;PMS7003;20229;49.856;19.030;2023-04-03T11:15:19;12;11;8
33948;PMS7003;20229;49.856;19.030;2023-04-03T11:20:37;11;10;7
33948;PMS7003;20229;49.856;19.030;2023-04-03T11:26:01;3;3;0
33948;PMS7003;20229;49.856;19.030;2023-04-03T11:42:13;2;1;0
33948;PMS7003;20229;49.856;19.030;2023-04-03T11:52:57;12;10;6
33948;PMS7003;20229;49.856;19.030;2023-04-03T11:58:14;8;6;5
33948;PMS7003;20229;49.856;19.030;2023-04-03T12:03:55;6;6;4
33948;PMS7003;20229;49.856;19.030;2023-04-03T12:08:59;5;3;1
33948;PMS7003;20229;49.856;19.030;2023-04-03T12:14:16;5;4;2
33948;PMS7003;20229;49.856;19.030;2023-04-03T12:19:34;9;8;5
33948;PMS7003;20229;49.856;19.030;2023-04-03T12:30:50;4;3;2
33948;PMS7003;20229;49.856;19.030;2023-04-03T12:36:07;10;9;8
33948;PMS7003;20229;49.856;19.030;2023-04-03T12:41:37;4;3;2
33948;PMS7003;20229;49.856;19.030;2023-04-03T12:46:52;12;10;9
33948;PMS7003;20229;49.856;19.030;2023-04-03T12:57:32;13;12;7
33948;PMS7003;20229;49.856;19.030;2023-04-03T13:02:45;11;10;8
33948;PMS7003;20229;49.856;19.030;2023-04-03T13:08:02;7;6;5
33948;PMS7003;20229;49.856;19.030;2023-04-03T13:13:18;42;42;40
33948;PMS7003;20229;49.856;19.030;2023-04-03T13:18:33;110;108;104
33948;PMS7003;20229;49.856;19.030;2023-04-03T13:23:49;106;106;103
33948;PMS7003;20229;49.856;19.030;2023-04-03T13:29:07;122;117;115
33948;PMS7003;20229;49.856;19.030;2023-04-03T13:34:40;132;128;126
33948;PMS7003;20229;49.856;19.030;2023-04-03T13:40:11;74;70;67
33948;PMS7003;20229;49.856;19.030;2023-04-03T13:56:37;123;119;116
33948;PMS7003;20229;49.856;19.030;2023-04-03T14:01:57;153;151;144
33948;PMS7003;20229;49.856;19.030;2023-04-03T14:07:21;128;125;121
33948;PMS7003;20229;49.856;19.030;2023-04-03T14:12:36;128;125;121
33948;PMS7003;20229;49.856;19.030;2023-04-03T14:17:54;66;65;63
33948;PMS7003;20229;49.856;19.030;2023-04-03T14:23:09;17;17;14
33948;PMS7003;20229;49.856;19.030;2023-04-03T14:28:23;22;20;17
33948;PMS7003;20229;49.856;19.030;2023-04-03T14:33:40;25;25;21
33948;PMS7003;20229;49.856;19.030;2023-04-03T14:38:54;14;13;11
33948;PMS7003;20229;49.856;19.030;2023-04-03T14:44:09;15;15;14
33948;PMS7003;20229;49.856;19.030;2023-04-03T14:49:27;16;16;12
33948;PMS7003;20229;49.856;19.030;2023-04-03T14:54:42;17;15;12
33948;PMS7003;20229;49.856;19.030;2023-04-03T14:59:56;16;11;10
33948;PMS7003;20229;49.856;19.030;2023-04-03T15:05:10;12;12;10
33948;PMS7003;20229;49.856;19.030;2023-04-03T15:10:27;24;21;18
33948;PMS7003;20229;49.856;19.030;2023-04-03T15:15:42;10;7;6
33948;PMS7003;20229;49.856;19.030;2023-04-03T15:20:56;16;16;13
33948;PMS7003;20229;49.856;19.030;2023-04-03T15:26:09;15;13;10
33948;PMS7003;20229;49.856;19.030;2023-04-03T15:31:23;14;13;12
33948;PMS7003;20229;49.856;19.030;2023-04-03T15:36:37;11;9;7
33948;PMS7003;20229;49.856;19.030;2023-04-03T15:41:51;14;10;8
33948;PMS7003;20229;49.856;19.030;2023-04-03T15:47:07;7;5;3
33948;PMS7003;20229;49.856;19.030;2023-04-03T15:52:21;15;15;12
33948;PMS7003;20229;49.856;19.030;2023-04-03T15:57:35;11;9;7
33948;PMS7003;20229;49.856;19.030;2023-04-03T16:02:50;12;9;6
33948;PMS7003;20229;49.856;19.030;2023-04-03T16:08:08;10;7;4
33948;PMS7003;20229;49.856;19.030;2023-04-03T16:13:23;26;22;19
33948;PMS7003;20229;49.856;19.030;2023-04-03T16:18:37;18;17;14
33948;PMS7003;20229;49.856;19.030;2023-04-03T16:23:51;26;24;18
33948;PMS7003;20229;49.856;19.030;2023-04-03T16:29:05;19;15;12
33948;PMS7003;20229;49.856;19.030;2023-04-03T16:34:19;8;7;3
33948;PMS7003;20229;49.856;19.030;2023-04-03T16:39:34;6;5;2
33948;PMS7003;20229;49.856;19.030;2023-04-03T16:44:48;7;6;3
33948;PMS7003;20229;49.856;19.030;2023-04-03T16:50:02;43;41;37
33948;PMS7003;20229;49.856;19.030;2023-04-03T16:55:17;90;90;87
33948;PMS7003;20229;49.856;19.030;2023-04-03T17:00:32;111;105;101
33948;PMS7003;20229;49.856;19.030;2023-04-03T17:05:47;241;241;240
33948;PMS7003;20229;49.856;19.030;2023-04-03T17:11:02;334;334;334
33948;PMS7003;20229;49.856;19.030;2023-04-03T17:16:16;190;188;187
33948;PMS7003;20229;49.856;19.030;2023-04-03T17:21:30;168;167;166
33948;PMS7003;20229;49.856;19.030;2023-04-03T17:26:46;74;66;64
33948;PMS7003;20229;49.856;19.030;2023-04-03T17:31:59;80;74;71
33948;PMS7003;20229;49.856;19.030;2023-04-03T17:37:13;20;17;14
33948;PMS7003;20229;49.856;19.030;2023-04-03T17:42:28;10;10;7
33948;PMS7003;20229;49.856;19.030;2023-04-03T17:47:44;17;15;11
33948;PMS7003;20229;49.856;19.030;2023-04-03T17:52:58;21;20;17
33948;PMS7003;20229;49.856;19.030;2023-04-03T17:58:12;40;35;27
33948;PMS7003;20229;49.856;19.030;2023-04-03T18:03:26;44;39;31
33948;PMS7003;20229;49.856;19.030;2023-04-03T18:08:41;36;31;24
33948;PMS7003;20229;49.856;19.030;2023-04-03T18:13:59;37;31;24
33948;PMS7003;20229;49.856;19.030;2023-04-03T18:19:15;39;35;27
33948;PMS7003;20229;49.856;19.030;2023-04-03T18:24:30;41;36;29
33948;PMS7003;20229;49.856;19.030;2023-04-03T18:29:48;41;35;27
33948;PMS7003;20229;49.856;19.030;2023-04-03T18:35:06;38;31;24
33948;PMS7003;20229;49.856;19.030;2023-04-03T18:40:21;43;37;29
33948;PMS7003;20229;49.856;19.030;2023-04-03T18:45:36;45;36;27
33948;PMS7003;20229;49.856;19.030;2023-04-03T18:50:53;41;32;25
33948;PMS7003;20229;49.856;19.030;2023-04-03T18:56:08;23;19;15
33948;PMS7003;20229;49.856;19.030;2023-04-03T19:01:22;26;25;20
33948;PMS7003;20229;49.856;19.030;2023-04-03T19:06:36;27;23;18
33948;PMS7003;20229;49.856;19.030;2023-04-03T19:11:51;23;23;18
33948;PMS7003;20229;49.856;19.030;2023-04-03T19:17:05;47;38;30
33948;PMS7003;20229;49.856;19.030;2023-04-03T19:22:21;46;41;32
33948;PMS7003;20229;49.856;19.030;2023-04-03T19:27:35;34;31;24
33948;PMS7003;20229;49.856;19.030;2023-04-03T19:32:50;28;24;19
33948;PMS7003;20229;49.856;19.030;2023-04-03T19:38:04;28;25;21
33948;PMS7003;20229;49.856;19.030;2023-04-03T19:43:18;27;27;21
33948;PMS7003;20229;49.856;19.030;2023-04-03T19:48:33;28;25;20
33948;PMS7003;20229;49.856;19.030;2023-04-03T19:53:48;29;25;20
33948;PMS7003;20229;49.856;19.030;2023-04-03T19:59:03;28;25;19
33948;PMS7003;20229;49.856;19.030;2023-04-03T20:04:17;30;28;21
33948;PMS7003;20229;49.856;19.030;2023-04-03T20:09:31;28;27;22
33948;PMS7003;20229;49.856;19.030;2023-04-03T20:14:46;30;27;21
33948;PMS7003;20229;49.856;19.030;2023-04-03T20:20:01;26;25;19
33948;PMS7003;20229;49.856;19.030;2023-04-03T20:25:16;23;21;16
33948;PMS7003;20229;49.856;19.030;2023-04-03T20:30:30;25;21;19
33948;PMS7003;20229;49.856;19.030;2023-04-03T20:35:46;28;21;13
33948;PMS7003;20229;49.856;19.030;2023-04-03T20:41:01;26;21;16
33948;PMS7003;20229;49.856;19.030;2023-04-03T20:46:14;19;18;14
33948;PMS7003;20229;49.856;19.030;2023-04-03T20:51:32;21;17;12
33948;PMS7003;20229;49.856;19.030;2023-04-03T20:56:47;22;16;12
33948;PMS7003;20229;49.856;19.030;2023-04-03T21:02:02;24;22;15
33948;PMS7003;20229;49.856;19.030;2023-04-03T21:24:03;20;19;15
33948;PMS7003;20229;49.856;19.030;2023-04-03T21:29:23;17;16;11
33948;PMS7003;20229;49.856;19.030;2023-04-03T21:34:36;9;7;3
33948;PMS7003;20229;49.856;19.030;2023-04-03T21:39:52;9;8;7
33948;PMS7003;20229;49.856;19.030;2023-04-03T21:45:06;9;9;5
33948;PMS7003;20229;49.856;19.030;2023-04-03T21:50:22;14;12;8
33948;PMS7003;20229;49.856;19.030;2023-04-03T21:55:36;15;13;11
33948;PMS7003;20229;49.856;19.030;2023-04-03T22:00:50;12;9;7
33948;PMS7003;20229;49.856;19.030;2023-04-03T22:06:04;16;14;10
33948;PMS7003;20229;49.856;19.030;2023-04-03T22:11:19;23;19;15
33948;PMS7003;20229;49.856;19.030;2023-04-03T22:16:39;16;16;9
33948;PMS7003;20229;49.856;19.030;2023-04-03T22:21:53;17;16;11
33948;PMS7003;20229;49.856;19.030;2023-04-03T22:27:07;23;17;13
33948;PMS7003;20229;49.856;19.030;2023-04-03T22:32:21;16;14;9
33948;PMS7003;20229;49.856;19.030;2023-04-03T22:37:35;19;14;10
33948;PMS7003;20229;49.856;19.030;2023-04-03T22:42:49;19;18;12
33948;PMS7003;20229;49.856;19.030;2023-04-03T22:48:03;20;17;13
33948;PMS7003;20229;49.856;19.030;2023-04-03T22:53:17;21;18;13
33948;PMS7003;20229;49.856;19.030;2023-04-03T22:58:32;20;16;11
33948;PMS7003;20229;49.856;19.030;2023-04-03T23:03:47;11;9;5
33948;PMS7003;20229;49.856;19.030;2023-04-03T23:09:01;19;17;12
33948;PMS7003;20229;49.856;19.030;2023-04-03T23:14:16;22;18;13
33948;PMS7003;20229;49.856;19.030;2023-04-03T23:19:31;24;19;14
33948;PMS7003;20229;49.856;19.030;2023-04-03T23:24:47;23;20;16
33948;PMS7003;20229;49.856;19.030;2023-04-03T23:30:00;21;17;13
33948;PMS7003;20229;49.856;19.030;2023-04-03T23:35:14;19;18;14
33948;PMS7003;20229;49.856;19.030;2023-04-03T23:40:28;20;17;14
33948;PMS7003;20229;49.856;19.030;2023-04-03T23:45:45;21;19;16
33948;PMS7003;20229;49.856;19.030;2023-04-03T23:51:00;20;15;10
33948;PMS7003;20229;49.856;19.030;2023-04-03T23:56:14;19;15;10
